createdAt,value
2022-12-11T00:01:14.456Z,8.55
2022-12-11T00:03:41.797Z,9.75
2022-12-11T00:06:12.309Z,8.70
2022-12-11T00:08:40.308Z,8.77
2022-12-11T00:11:10.101Z,8.43
2022-12-11T00:13:37.209Z,8.00
2022-12-11T00:16:04.594Z,8.90
2022-12-11T00:18:31.948Z,9.55
2022-12-11T00:21:03.915Z,10.65
2022-12-11T00:23:31.506Z,11.18
2022-12-11T00:25:58.771Z,10.20
2022-12-11T00:28:25.820Z,9.68
2022-12-11T00:30:53.100Z,8.55
2022-12-11T00:33:20.145Z,9.60
2022-12-11T00:35:48.115Z,9.95
2022-12-11T00:38:17.693Z,9.32
2022-12-11T00:40:45.159Z,10.02
2022-12-11T00:43:12.775Z,8.95
2022-12-11T00:45:43.014Z,9.27
2022-12-11T00:48:11.207Z,11.88
2022-12-11T00:50:39.127Z,8.82
2022-12-11T00:53:07.392Z,11.30
2022-12-11T00:55:39.107Z,12.00
2022-12-11T00:58:06.273Z,9.02
2022-12-11T01:00:33.773Z,9.27
2022-12-11T01:03:01.025Z,6.95
2022-12-11T01:05:28.127Z,7.88
2022-12-11T01:07:55.276Z,8.07
2022-12-11T01:10:24.408Z,8.43
2022-12-11T01:13:01.675Z,7.82
2022-12-11T01:15:33.653Z,7.28
2022-12-11T01:18:02.663Z,8.13
2022-12-11T01:20:29.787Z,8.40
2022-12-11T01:22:58.997Z,8.10
2022-12-11T01:25:27.628Z,8.40
2022-12-11T01:27:56.115Z,8.65
2022-12-11T01:30:25.133Z,11.15
2022-12-11T01:32:52.602Z,8.80
2022-12-11T01:35:20.074Z,9.95
2022-12-11T01:37:47.738Z,8.73
2022-12-11T01:40:18.500Z,9.35
2022-12-11T01:42:45.923Z,8.38
2022-12-11T01:45:34.663Z,7.85
2022-12-11T01:48:11.174Z,8.45
2022-12-11T01:50:50.701Z,10.38
2022-12-11T01:53:23.312Z,7.93
2022-12-11T01:55:53.636Z,9.20
2022-12-11T01:58:23.238Z,8.93
2022-12-11T02:00:51.672Z,8.98
2022-12-11T02:03:18.884Z,8.77
2022-12-11T02:05:46.171Z,9.05
2022-12-11T02:08:13.519Z,8.45
2022-12-11T02:10:49.193Z,10.40
2022-12-11T02:13:25.359Z,25.60
2022-12-11T02:16:04.651Z,32.58
2022-12-11T02:18:33.858Z,21.73
2022-12-11T02:21:12.585Z,16.67
2022-12-11T02:24:06.770Z,23.05
2022-12-11T02:26:42.323Z,13.98
2022-12-11T02:29:16.608Z,11.30
2022-12-11T02:31:53.370Z,15.43
2022-12-11T02:34:43.469Z,10.88
2022-12-11T02:37:19.078Z,11.70
2022-12-11T02:39:49.151Z,11.82
2022-12-11T02:42:18.446Z,14.07
2022-12-11T02:44:48.361Z,12.45
2022-12-11T02:47:18.253Z,12.25
2022-12-11T02:49:49.565Z,12.73
2022-12-11T02:52:21.789Z,9.32
2022-12-11T02:54:51.726Z,11.68
2022-12-11T02:57:27.764Z,10.27
2022-12-11T02:59:55.092Z,10.93
2022-12-11T03:02:22.234Z,10.10
2022-12-11T03:04:49.557Z,10.70
2022-12-11T03:07:27.725Z,10.25
2022-12-11T03:09:55.467Z,10.48
2022-12-11T03:12:29.228Z,10.57
2022-12-11T03:15:00.771Z,9.45
2022-12-11T03:17:35.752Z,10.52
2022-12-11T03:20:10.589Z,9.55
2022-12-11T03:22:45.797Z,8.93
2022-12-11T03:25:20.291Z,11.50
2022-12-11T03:27:57.387Z,12.52
2022-12-11T03:30:25.970Z,11.27
2022-12-11T03:33:02.942Z,11.90
2022-12-11T03:35:37.564Z,9.32
2022-12-11T03:40:36.345Z,11.35
2022-12-11T03:43:04.199Z,13.07
2022-12-11T03:45:32.844Z,10.98
2022-12-11T03:48:02.814Z,10.55
2022-12-11T03:50:32.343Z,12.50
2022-12-11T03:53:01.660Z,11.60
2022-12-11T03:55:30.779Z,11.25
2022-12-11T03:57:57.832Z,18.05
2022-12-11T04:00:25.473Z,11.68
2022-12-11T04:03:13.974Z,11.45
2022-12-11T04:05:44.440Z,14.07
2022-12-11T04:08:11.774Z,12.20
2022-12-11T04:10:39.659Z,11.68
2022-12-11T04:13:07.125Z,10.73
2022-12-11T04:15:34.684Z,11.38
2022-12-11T04:18:21.709Z,10.82
2022-12-11T04:21:08.772Z,10.23
2022-12-11T04:23:55.858Z,10.65
2022-12-11T04:26:23.107Z,10.35
2022-12-11T04:28:50.770Z,10.52
2022-12-11T04:31:21.425Z,12.07
2022-12-11T04:33:48.941Z,10.73
2022-12-11T04:36:16.528Z,11.20
2022-12-11T04:38:43.617Z,10.93
2022-12-11T04:41:14.017Z,10.52
2022-12-11T04:43:41.385Z,7.85
2022-12-11T04:46:13.211Z,9.68
2022-12-11T04:48:41.091Z,9.43
2022-12-11T04:51:09.191Z,11.05
2022-12-11T04:53:36.442Z,8.70
2022-12-11T04:56:08.913Z,9.07
2022-12-11T04:58:37.146Z,8.63
2022-12-11T05:01:09.208Z,7.43
2022-12-11T05:03:36.636Z,8.10
2022-12-11T05:06:04.134Z,7.28
2022-12-11T05:08:31.361Z,8.40
2022-12-11T05:11:00.568Z,9.55
2022-12-11T05:13:29.601Z,7.03
2022-12-11T05:15:57.562Z,7.38
2022-12-11T05:18:25.550Z,9.05
2022-12-11T05:20:57.259Z,7.85
2022-12-11T05:23:24.467Z,7.53
2022-12-11T05:25:54.910Z,7.00
2022-12-11T05:28:24.969Z,8.15
2022-12-11T05:30:56.896Z,7.60
2022-12-11T05:33:25.328Z,8.27
2022-12-11T05:35:52.440Z,7.88
2022-12-11T05:38:20.271Z,8.30
2022-12-11T05:40:57.564Z,10.02
2022-12-11T05:43:25.079Z,9.63
2022-12-11T05:45:52.208Z,9.15
2022-12-11T05:48:19.296Z,8.35
2022-12-11T05:50:57.581Z,8.55
2022-12-11T05:53:24.666Z,7.28
2022-12-11T05:55:51.874Z,9.15
2022-12-11T05:58:20.981Z,7.47
2022-12-11T06:00:48.865Z,6.70
2022-12-11T06:03:16.121Z,7.53
2022-12-11T06:05:43.712Z,9.25
2022-12-11T06:08:10.944Z,7.57
2022-12-11T06:10:38.114Z,9.88
2022-12-11T06:13:05.202Z,10.10
2022-12-11T06:15:32.885Z,9.27
2022-12-11T06:18:00.093Z,7.78
2022-12-11T06:20:27.209Z,7.97
2022-12-11T06:22:54.313Z,8.70
2022-12-11T06:25:21.429Z,10.60
2022-12-11T06:27:48.440Z,8.05
2022-12-11T06:30:16.660Z,10.45
2022-12-11T06:32:44.188Z,9.02
2022-12-11T06:35:11.944Z,8.95
2022-12-11T06:37:40.548Z,9.35
2022-12-11T06:40:10.562Z,11.07
2022-12-11T06:42:37.557Z,9.43
2022-12-11T06:45:05.248Z,7.75
2022-12-11T06:47:33.224Z,7.53
2022-12-11T06:50:01.261Z,8.30
2022-12-11T06:52:28.819Z,6.93
2022-12-11T06:54:57.051Z,9.02
2022-12-11T06:57:24.278Z,7.47
2022-12-11T06:59:51.355Z,7.93
2022-12-11T07:02:19.789Z,7.72
2022-12-11T07:04:53.333Z,6.93
2022-12-11T07:07:22.207Z,10.45
2022-12-11T07:09:49.292Z,8.63
2022-12-11T07:12:17.383Z,7.93
2022-12-11T07:14:44.400Z,8.18
2022-12-11T07:17:11.427Z,7.97
2022-12-11T07:19:38.552Z,10.55
2022-12-11T07:22:05.520Z,9.23
2022-12-11T07:24:32.593Z,9.07
2022-12-11T07:26:59.734Z,21.60
2022-12-11T07:29:26.825Z,40.95
2022-12-11T07:31:54.182Z,48.58
2022-12-11T07:34:21.367Z,44.17
2022-12-11T07:36:48.468Z,29.98
2022-12-11T07:39:16.178Z,26.58
2022-12-11T07:41:43.228Z,18.77
2022-12-11T07:44:11.720Z,15.40
2022-12-11T07:46:40.019Z,11.55
2022-12-11T07:49:07.564Z,11.05
2022-12-11T07:51:36.680Z,12.23
2022-12-11T07:54:08.279Z,11.68
2022-12-11T07:56:35.703Z,16.17
2022-12-11T07:59:05.032Z,14.10
2022-12-11T08:01:36.634Z,12.68
2022-12-11T08:04:06.190Z,12.50
2022-12-11T08:06:35.415Z,14.90
2022-12-11T08:09:04.899Z,13.52
2022-12-11T08:11:31.916Z,11.45
2022-12-11T08:13:59.808Z,11.75
2022-12-11T08:16:27.341Z,15.52
2022-12-11T08:18:54.424Z,14.15
2022-12-11T08:21:24.483Z,11.60
2022-12-11T08:23:52.688Z,11.32
2022-12-11T08:26:24.666Z,10.90
2022-12-11T08:28:52.522Z,8.82
2022-12-11T08:31:19.659Z,6.35
2022-12-11T08:33:47.654Z,6.97
2022-12-11T08:36:18.453Z,7.03
2022-12-11T08:38:46.711Z,6.07
2022-12-11T08:41:17.636Z,8.02
2022-12-11T08:43:44.866Z,6.85
2022-12-11T08:46:12.938Z,6.65
2022-12-11T08:48:41.924Z,6.45
2022-12-11T08:51:13.449Z,6.63
2022-12-11T08:53:40.940Z,6.20
2022-12-11T08:56:10.843Z,7.38
2022-12-11T08:58:38.512Z,6.90
2022-12-11T09:01:11.600Z,9.43
2022-12-11T09:03:40.109Z,8.68
2022-12-11T09:06:09.376Z,10.05
2022-12-11T09:08:36.872Z,9.07
2022-12-11T09:11:07.470Z,8.38
2022-12-11T09:13:34.629Z,6.20
2022-12-11T09:16:05.601Z,6.03
2022-12-11T09:18:33.004Z,5.68
2022-12-11T09:21:04.764Z,7.07
2022-12-11T09:23:31.994Z,8.13
2022-12-11T09:25:59.454Z,7.85
2022-12-11T09:28:26.671Z,6.93
2022-12-11T09:30:53.752Z,10.52
2022-12-11T09:33:20.910Z,8.07
2022-12-11T09:35:58.200Z,9.65
2022-12-11T09:38:26.048Z,8.43
2022-12-11T09:40:53.572Z,9.20
2022-12-11T09:43:32.590Z,8.07
2022-12-11T09:46:03.307Z,9.63
2022-12-11T09:48:34.221Z,8.27
2022-12-11T09:51:14.435Z,7.93
2022-12-11T09:53:41.867Z,10.18
2022-12-11T09:56:09.869Z,8.35
2022-12-11T09:58:37.123Z,8.05
2022-12-11T10:01:15.203Z,8.82
2022-12-11T10:04:03.353Z,6.82
2022-12-11T10:06:54.788Z,8.57
2022-12-11T10:09:27.877Z,8.20
2022-12-11T10:12:06.711Z,8.88
2022-12-11T10:14:53.737Z,6.82
2022-12-11T10:17:27.648Z,6.95
2022-12-11T10:19:58.303Z,4.47
2022-12-11T10:22:29.995Z,7.05
2022-12-11T10:25:17.316Z,7.18
2022-12-11T10:27:45.271Z,7.68
2022-12-11T10:30:13.617Z,6.95
2022-12-11T10:32:41.647Z,7.25
2022-12-11T10:35:18.970Z,9.00
2022-12-11T10:37:46.087Z,7.93
2022-12-11T10:40:13.891Z,6.95
2022-12-11T10:42:51.315Z,8.65
2022-12-11T10:45:18.456Z,8.73
2022-12-11T10:47:45.999Z,6.90
2022-12-11T10:50:29.052Z,7.82
2022-12-11T10:52:56.569Z,9.30
2022-12-11T10:55:28.599Z,8.15
2022-12-11T10:57:59.734Z,9.05
2022-12-11T11:00:37.754Z,8.68
2022-12-11T11:03:19.959Z,9.73
2022-12-11T11:05:49.551Z,8.90
2022-12-11T11:08:22.849Z,8.38
2022-12-11T11:10:56.708Z,9.23
2022-12-11T11:13:26.617Z,7.07
2022-12-11T11:16:03.064Z,8.88
2022-12-11T11:18:32.089Z,10.23
2022-12-11T11:21:00.840Z,9.93
2022-12-11T11:23:28.508Z,10.00
2022-12-11T11:25:58.699Z,9.90
2022-12-11T11:28:31.686Z,9.30
2022-12-11T11:31:10.397Z,9.52
2022-12-11T11:33:45.667Z,8.70
2022-12-11T11:36:23.292Z,9.98
2022-12-11T11:38:59.104Z,10.85
2022-12-11T11:41:34.860Z,13.07
2022-12-11T11:44:07.407Z,9.65
2022-12-11T11:46:37.989Z,9.00
2022-12-11T11:49:14.464Z,10.63
2022-12-11T11:51:46.657Z,10.10
2022-12-11T11:54:27.730Z,9.20
2022-12-11T11:56:57.139Z,7.75
2022-12-11T11:59:31.268Z,10.57
2022-12-11T12:01:58.720Z,9.15
2022-12-11T12:04:32.677Z,9.40
2022-12-11T12:07:39.562Z,9.30
2022-12-11T12:10:29.294Z,12.02
2022-12-11T12:13:23.941Z,10.75
2022-12-11T12:15:59.891Z,10.02
2022-12-11T12:18:45.543Z,11.45
2022-12-11T12:21:29.178Z,12.85
2022-12-11T12:24:19.625Z,12.57
2022-12-11T12:26:53.693Z,10.35
2022-12-11T12:29:41.727Z,10.80
2022-12-11T12:32:14.609Z,10.30
2022-12-11T12:34:56.405Z,15.55
2022-12-11T12:37:31.636Z,14.40
2022-12-11T12:40:26.110Z,12.90
2022-12-11T12:43:13.073Z,13.10
2022-12-11T12:45:51.735Z,13.15
2022-12-11T12:48:19.848Z,13.57
2022-12-11T12:50:51.004Z,15.27
2022-12-11T12:53:23.805Z,16.83
2022-12-11T12:55:53.058Z,15.85
2022-12-11T12:58:27.712Z,15.70
2022-12-11T13:01:06.081Z,15.48
2022-12-11T13:03:48.821Z,12.70
2022-12-11T13:06:16.439Z,14.35
2022-12-11T13:08:48.299Z,14.13
2022-12-11T13:11:18.612Z,15.23
2022-12-11T13:13:54.943Z,15.38
2022-12-11T13:16:26.916Z,11.63
2022-12-11T13:18:54.570Z,14.43
2022-12-11T13:21:30.611Z,15.00
2022-12-11T13:24:21.057Z,13.93
2022-12-11T13:26:49.657Z,17.13
2022-12-11T13:29:37.766Z,14.73
2022-12-11T13:32:24.710Z,15.18
2022-12-11T13:34:57.293Z,16.15
2022-12-11T13:37:33.914Z,19.58
2022-12-11T13:40:08.453Z,17.88
2022-12-11T13:45:06.066Z,16.17
2022-12-11T13:47:35.645Z,14.88
2022-12-11T13:50:21.788Z,15.32
2022-12-11T13:52:58.654Z,13.85
2022-12-11T13:55:33.066Z,13.40
2022-12-11T13:58:00.505Z,14.20
2022-12-11T14:00:32.162Z,15.48
2022-12-11T14:03:04.531Z,16.30
2022-12-11T14:05:31.938Z,15.15
2022-12-11T14:08:05.352Z,14.15
2022-12-11T14:10:33.209Z,13.05
2022-12-11T14:13:05.723Z,14.45
2022-12-11T14:15:35.502Z,15.07
2022-12-11T14:18:04.211Z,14.45
2022-12-11T14:20:34.179Z,16.30
2022-12-11T14:23:18.310Z,15.02
2022-12-11T14:25:56.532Z,14.50
2022-12-11T14:28:27.813Z,16.67
2022-12-11T14:30:59.254Z,15.98
2022-12-11T14:33:32.721Z,15.73
2022-12-11T14:36:02.345Z,14.75
2022-12-11T14:38:37.247Z,17.38
2022-12-11T14:41:13.833Z,15.77
2022-12-11T14:43:48.549Z,16.30
2022-12-11T14:46:22.124Z,14.45
2022-12-11T14:49:00.745Z,11.50
2022-12-11T14:51:33.893Z,16.30
2022-12-11T14:54:03.701Z,15.40
2022-12-11T14:56:31.634Z,13.75
2022-12-11T14:59:02.955Z,15.40
2022-12-11T15:01:32.967Z,15.43
2022-12-11T15:04:07.265Z,15.80
2022-12-11T15:06:42.892Z,15.50
2022-12-11T15:09:17.631Z,16.38
2022-12-11T15:14:14.068Z,10.45
2022-12-11T15:16:43.050Z,13.27
2022-12-11T15:19:29.091Z,13.27
2022-12-11T15:22:04.137Z,14.77
2022-12-11T15:24:39.209Z,17.25
2022-12-11T15:27:07.970Z,15.30
2022-12-11T15:29:38.489Z,14.90
2022-12-11T15:32:09.244Z,13.50
2022-12-11T15:34:43.045Z,14.95
2022-12-11T15:37:19.763Z,14.30
2022-12-11T15:39:47.129Z,14.48
2022-12-11T15:42:24.536Z,16.15
2022-12-11T15:44:52.351Z,15.25
2022-12-11T15:47:24.489Z,15.85
2022-12-11T15:49:56.286Z,12.52
2022-12-11T15:52:23.590Z,13.20
2022-12-11T15:54:50.693Z,13.43
2022-12-11T15:57:21.879Z,10.63
2022-12-11T15:59:51.629Z,11.27
2022-12-11T16:02:18.971Z,10.35
2022-12-11T16:04:46.314Z,11.18
2022-12-11T16:07:18.484Z,10.25
2022-12-11T16:09:47.258Z,11.63
2022-12-11T16:12:14.720Z,10.95
2022-12-11T16:14:42.689Z,14.25
2022-12-11T16:17:13.816Z,12.07
2022-12-11T16:19:43.145Z,13.05
2022-12-11T16:22:11.724Z,12.00
2022-12-11T16:24:40.113Z,12.52
2022-12-11T16:27:09.722Z,11.70
2022-12-11T16:29:38.898Z,12.40
2022-12-11T16:32:08.589Z,9.02
2022-12-11T16:34:37.337Z,8.63
2022-12-11T16:37:07.183Z,10.25
2022-12-11T16:39:35.530Z,9.18
2022-12-11T16:42:02.887Z,9.40
2022-12-11T16:44:30.537Z,11.65
2022-12-11T16:46:58.586Z,8.82
2022-12-11T16:49:25.752Z,9.02
2022-12-11T16:51:53.022Z,9.35
2022-12-11T16:54:20.181Z,9.73
2022-12-11T16:56:47.292Z,9.45
2022-12-11T16:59:14.482Z,8.70
2022-12-11T17:01:42.652Z,8.32
2022-12-11T17:04:10.510Z,9.95
2022-12-11T17:06:37.604Z,9.90
2022-12-11T17:09:04.823Z,9.02
2022-12-11T17:11:31.936Z,8.82
2022-12-11T17:14:00.407Z,8.65
2022-12-11T17:16:30.634Z,10.18
2022-12-11T17:19:00.821Z,11.98
2022-12-11T17:21:28.038Z,12.68
2022-12-11T17:23:55.227Z,14.75
2022-12-11T17:26:22.352Z,19.98
2022-12-11T17:28:49.599Z,13.73
2022-12-11T17:31:19.486Z,11.23
2022-12-11T17:33:47.802Z,9.27
2022-12-11T17:36:17.065Z,13.55
2022-12-11T17:38:44.984Z,11.65
2022-12-11T17:41:20.096Z,12.77
2022-12-11T17:43:49.471Z,17.77
2022-12-11T17:46:18.177Z,24.02
2022-12-11T17:48:46.063Z,18.50
2022-12-11T17:51:14.709Z,39.33
2022-12-11T17:53:41.768Z,48.90
2022-12-11T17:56:09.416Z,18.02
2022-12-11T17:58:36.415Z,16.55
2022-12-11T18:01:08.219Z,11.95
2022-12-11T18:03:36.784Z,9.02
2022-12-11T18:06:07.747Z,9.43
2022-12-11T18:08:35.125Z,11.65
2022-12-11T18:11:13.823Z,9.25
2022-12-11T18:13:41.912Z,11.13
2022-12-11T18:16:13.645Z,9.60
2022-12-11T18:18:41.129Z,9.45
2022-12-11T18:21:08.666Z,9.70
2022-12-11T18:23:35.857Z,12.77
2022-12-11T18:26:03.059Z,11.23
2022-12-11T18:28:32.408Z,11.65
2022-12-11T18:31:01.119Z,10.18
2022-12-11T18:33:29.395Z,9.50
2022-12-11T18:35:56.830Z,10.07
2022-12-11T18:38:24.447Z,11.10
2022-12-11T18:40:51.900Z,10.02
2022-12-11T18:43:19.333Z,11.40
2022-12-11T18:45:46.535Z,10.35
2022-12-11T18:48:14.525Z,11.23
2022-12-11T18:50:45.915Z,13.98
2022-12-11T18:53:13.705Z,9.82
2022-12-11T18:55:44.052Z,10.20
2022-12-11T18:58:14.476Z,9.75
2022-12-11T19:00:42.680Z,8.30
2022-12-11T19:03:11.186Z,19.40
2022-12-11T19:05:42.401Z,11.63
2022-12-11T19:08:12.057Z,11.73
2022-12-11T19:10:45.863Z,11.15
2022-12-11T19:13:14.181Z,7.05
2022-12-11T19:15:43.123Z,10.23
2022-12-11T19:18:11.420Z,11.85
2022-12-11T19:20:48.916Z,10.15
2022-12-11T19:23:16.825Z,9.57
2022-12-11T19:25:46.911Z,10.32
2022-12-11T19:28:15.034Z,10.93
2022-12-11T19:30:45.116Z,11.68
2022-12-11T19:33:13.159Z,9.65
2022-12-11T19:35:41.185Z,10.15
2022-12-11T19:38:08.652Z,9.68
2022-12-11T19:40:41.126Z,10.30
2022-12-11T19:43:08.870Z,9.35
2022-12-11T19:45:36.579Z,10.75
2022-12-11T19:48:03.866Z,11.73
2022-12-11T19:50:31.764Z,11.18
2022-12-11T19:52:59.183Z,11.80
2022-12-11T19:55:26.338Z,12.82
2022-12-11T19:57:53.661Z,12.05
2022-12-11T20:00:20.869Z,13.90
2022-12-11T20:02:49.226Z,12.50
2022-12-11T20:05:17.010Z,12.65
2022-12-11T20:07:45.550Z,13.93
2022-12-11T20:10:12.907Z,11.98
2022-12-11T20:12:40.058Z,15.52
2022-12-11T20:15:07.619Z,14.23
2022-12-11T20:17:36.833Z,13.25
2022-12-11T20:20:04.408Z,15.20
2022-12-11T20:22:31.737Z,16.58
2022-12-11T20:24:59.601Z,14.77
2022-12-11T20:27:28.767Z,17.25
2022-12-11T20:29:56.359Z,18.42
2022-12-11T20:32:23.891Z,39.13
2022-12-11T20:34:54.971Z,17.83
2022-12-11T20:37:22.329Z,17.50
2022-12-11T20:39:49.567Z,16.33
2022-12-11T20:42:16.927Z,16.65
2022-12-11T20:44:49.286Z,14.63
2022-12-11T20:47:20.064Z,15.30
2022-12-11T20:49:48.804Z,16.42
2022-12-11T20:52:18.000Z,16.40
2022-12-11T20:54:45.815Z,8.45
2022-12-11T20:57:15.256Z,10.35
2022-12-11T20:59:44.473Z,7.45
2022-12-11T21:02:13.066Z,9.60
2022-12-11T21:04:41.349Z,9.20
2022-12-11T21:07:10.182Z,10.05
2022-12-11T21:09:38.232Z,14.70
2022-12-11T21:12:06.741Z,13.77
2022-12-11T21:14:34.056Z,15.13
2022-12-11T21:17:01.378Z,18.17
2022-12-11T21:19:28.727Z,18.48
2022-12-11T21:21:56.450Z,15.82
2022-12-11T21:24:26.810Z,12.98
2022-12-11T21:26:56.522Z,14.75
2022-12-11T21:29:26.297Z,14.07
2022-12-11T21:31:53.850Z,14.43
2022-12-11T21:34:25.260Z,14.52
2022-12-11T21:36:56.459Z,13.75
2022-12-11T21:39:25.440Z,14.90
2022-12-11T21:41:53.262Z,16.20
2022-12-11T21:47:07.463Z,14.65
2022-12-11T21:49:36.958Z,16.30
2022-12-11T21:52:04.714Z,15.93
2022-12-11T21:54:32.092Z,18.17
2022-12-11T21:56:59.154Z,15.27
2022-12-11T21:59:27.829Z,17.63
2022-12-11T22:01:55.123Z,16.35
2022-12-11T22:04:22.185Z,15.55
2022-12-11T22:06:49.233Z,16.92
2022-12-11T22:09:17.931Z,19.75
2022-12-11T22:11:46.331Z,14.23
2022-12-11T22:14:15.565Z,16.35
2022-12-11T22:16:43.665Z,17.55
2022-12-11T22:19:11.090Z,18.02
2022-12-11T22:21:39.006Z,16.45
2022-12-11T22:24:06.376Z,14.05
2022-12-11T22:26:33.495Z,14.48
2022-12-11T22:29:00.539Z,13.93
2022-12-11T22:31:28.253Z,14.25
2022-12-11T22:33:55.458Z,14.10
2022-12-11T22:36:25.258Z,16.48
2022-12-11T22:38:53.002Z,14.07
2022-12-11T22:41:26.660Z,13.82
2022-12-11T22:43:54.593Z,14.32
2022-12-11T22:46:24.779Z,11.93
2022-12-11T22:48:52.075Z,14.75
2022-12-11T22:51:19.857Z,13.23
2022-12-11T22:53:47.445Z,12.55
2022-12-11T22:56:15.202Z,14.60
2022-12-11T22:58:42.303Z,15.65
2022-12-11T23:01:13.472Z,14.57
2022-12-11T23:03:41.036Z,15.60
2022-12-11T23:06:11.316Z,15.60
2022-12-11T23:08:40.415Z,15.55
2022-12-11T23:11:14.825Z,17.38
2022-12-11T23:13:42.742Z,17.27
2022-12-11T23:16:10.807Z,16.98
2022-12-11T23:18:38.871Z,16.58
2022-12-11T23:21:06.631Z,15.57
2022-12-11T23:23:33.893Z,15.95
2022-12-11T23:26:00.985Z,14.82
2022-12-11T23:28:28.207Z,15.70
2022-12-11T23:30:55.384Z,15.65
2022-12-11T23:33:22.548Z,16.83
2022-12-11T23:35:49.654Z,16.77
2022-12-11T23:38:17.515Z,17.35
2022-12-11T23:40:44.994Z,14.35
2022-12-11T23:43:12.146Z,15.20
2022-12-11T23:45:39.165Z,16.67
2022-12-11T23:48:06.289Z,16.17
2022-12-11T23:50:33.276Z,15.48
2022-12-11T23:53:00.554Z,18.75
2022-12-11T23:55:28.183Z,17.27
2022-12-11T23:57:56.179Z,19.75
